sensor_id;sensor_type;location;lat;lon;timestamp;pressure;altitude;pressure_sealevel;temperature;humidity
38786;BME280;24535;45.508;12.252;2022-09-02T00:01:48;101548.00;;;25.51;48.66
38786;BME280;24535;45.508;12.252;2022-09-02T00:04:25;101539.28;;;25.49;48.75
38786;BME280;24535;45.508;12.252;2022-09-02T00:06:52;101537.78;;;25.46;48.29
38786;BME280;24535;45.508;12.252;2022-09-02T00:09:22;101533.22;;;25.47;48.49
38786;BME280;24535;45.508;12.252;2022-09-02T00:11:49;101524.81;;;25.42;48.35
38786;BME280;24535;45.508;12.252;2022-09-02T00:14:36;101524.06;;;25.33;48.48
38786;BME280;24535;45.508;12.252;2022-09-02T00:17:03;101519.66;;;25.32;48.20
38786;BME280;24535;45.508;12.252;2022-09-02T00:19:32;101534.47;;;25.36;48.46
38786;BME280;24535;45.508;12.252;2022-09-02T00:21:58;101531.13;;;25.34;47.95
38786;BME280;24535;45.508;12.252;2022-09-02T00:27:20;101526.91;;;25.31;48.49
38786;BME280;24535;45.508;12.252;2022-09-02T00:29:46;101521.50;;;25.31;48.28
38786;BME280;24535;45.508;12.252;2022-09-02T00:32:11;101519.84;;;25.30;48.53
38786;BME280;24535;45.508;12.252;2022-09-02T00:34:40;101526.28;;;25.29;48.81
38786;BME280;24535;45.508;12.252;2022-09-02T00:37:05;101518.03;;;25.23;48.49
38786;BME280;24535;45.508;12.252;2022-09-02T00:39:36;101509.94;;;25.23;49.07
38786;BME280;24535;45.508;12.252;2022-09-02T00:42:02;101517.22;;;25.22;49.36
38786;BME280;24535;45.508;12.252;2022-09-02T00:44:28;101513.88;;;25.20;49.25
38786;BME280;24535;45.508;12.252;2022-09-02T00:46:53;101521.97;;;25.20;49.55
38786;BME280;24535;45.508;12.252;2022-09-02T00:49:39;101526.31;;;25.21;50.01
38786;BME280;24535;45.508;12.252;2022-09-02T00:52:28;101526.69;;;25.18;50.04
38786;BME280;24535;45.508;12.252;2022-09-02T00:55:34;101523.34;;;25.16;49.86
38786;BME280;24535;45.508;12.252;2022-09-02T00:58:26;101513.94;;;25.12;50.49
38786;BME280;24535;45.508;12.252;2022-09-02T01:00:59;101509.56;;;25.03;50.56
38786;BME280;24535;45.508;12.252;2022-09-02T01:03:27;101509.94;;;25.00;50.63
38786;BME280;24535;45.508;12.252;2022-09-02T01:06:02;101508.28;;;24.90;50.73
38786;BME280;24535;45.508;12.252;2022-09-02T01:11:53;101507.00;;;24.78;51.29
38786;BME280;24535;45.508;12.252;2022-09-02T01:14:21;101515.63;;;24.74;51.27
38786;BME280;24535;45.508;12.252;2022-09-02T01:16:52;101515.97;;;24.71;51.30
38786;BME280;24535;45.508;12.252;2022-09-02T01:19:26;101512.13;;;24.65;51.84
38786;BME280;24535;45.508;12.252;2022-09-02T01:21:56;101508.16;;;24.53;51.77
38786;BME280;24535;45.508;12.252;2022-09-02T01:24:25;101504.63;;;24.52;52.02
38786;BME280;24535;45.508;12.252;2022-09-02T01:27:06;101502.59;;;24.46;51.97
38786;BME280;24535;45.508;12.252;2022-09-02T01:29:32;101506.84;;;24.40;51.97
38786;BME280;24535;45.508;12.252;2022-09-02T01:31:57;101513.56;;;24.36;52.62
38786;BME280;24535;45.508;12.252;2022-09-02T01:34:23;101506.50;;;24.35;52.86
38786;BME280;24535;45.508;12.252;2022-09-02T01:36:48;101509.34;;;24.34;52.86
38786;BME280;24535;45.508;12.252;2022-09-02T01:39:14;101503.13;;;24.33;53.18
38786;BME280;24535;45.508;12.252;2022-09-02T01:41:40;101511.41;;;24.32;53.29
38786;BME280;24535;45.508;12.252;2022-09-02T01:44:06;101510.06;;;24.28;53.55
38786;BME280;24535;45.508;12.252;2022-09-02T01:46:51;101526.03;;;24.29;54.05
38786;BME280;24535;45.508;12.252;2022-09-02T01:49:20;101510.22;;;24.26;53.64
38786;BME280;24535;45.508;12.252;2022-09-02T01:51:45;101515.97;;;24.31;54.00
38786;BME280;24535;45.508;12.252;2022-09-02T01:54:11;101509.38;;;24.26;54.17
38786;BME280;24535;45.508;12.252;2022-09-02T02:03:22;101516.81;;;24.24;54.35
38786;BME280;24535;45.508;12.252;2022-09-02T02:05:49;101515.16;;;24.23;54.68
38786;BME280;24535;45.508;12.252;2022-09-02T02:08:14;101514.78;;;24.26;54.84
38786;BME280;24535;45.508;12.252;2022-09-02T02:10:41;101512.09;;;24.26;55.16
38786;BME280;24535;45.508;12.252;2022-09-02T02:13:07;101515.78;;;24.25;55.17
38786;BME280;24535;45.508;12.252;2022-09-02T02:15:40;101512.91;;;24.26;55.75
38786;BME280;24535;45.508;12.252;2022-09-02T02:18:07;101514.25;;;24.30;55.43
38786;BME280;24535;45.508;12.252;2022-09-02T02:20:44;101506.84;;;24.32;55.40
38786;BME280;24535;45.508;12.252;2022-09-02T02:23:18;101515.97;;;24.39;55.55
38786;BME280;24535;45.508;12.252;2022-09-02T02:25:43;101515.59;;;24.42;55.34
38786;BME280;24535;45.508;12.252;2022-09-02T02:28:11;101503.81;;;24.44;55.30
38786;BME280;24535;45.508;12.252;2022-09-02T02:30:38;101500.09;;;24.45;55.66
38786;BME280;24535;45.508;12.252;2022-09-02T02:33:26;101506.84;;;24.40;55.62
38786;BME280;24535;45.508;12.252;2022-09-02T02:35:58;101497.09;;;24.31;55.66
38786;BME280;24535;45.508;12.252;2022-09-02T02:38:59;101504.16;;;24.32;55.88
38786;BME280;24535;45.508;12.252;2022-09-02T02:44:01;101498.09;;;24.30;55.86
38786;BME280;24535;45.508;12.252;2022-09-02T02:46:26;101498.09;;;24.30;55.16
38786;BME280;24535;45.508;12.252;2022-09-02T02:49:03;101499.09;;;24.37;55.69
38786;BME280;24535;45.508;12.252;2022-09-02T02:52:02;101492.22;;;24.35;55.88
38786;BME280;24535;45.508;12.252;2022-09-02T02:54:59;101482.44;;;24.34;55.71
38786;BME280;24535;45.508;12.252;2022-09-02T02:57:26;101473.19;;;24.28;55.47
38786;BME280;24535;45.508;12.252;2022-09-02T02:59:52;101479.28;;;24.22;55.32
38786;BME280;24535;45.508;12.252;2022-09-02T03:02:17;101468.03;;;24.18;55.51
38786;BME280;24535;45.508;12.252;2022-09-02T03:04:43;101483.66;;;24.23;55.40
38786;BME280;24535;45.508;12.252;2022-09-02T03:07:08;101473.53;;;24.25;55.34
38786;BME280;24535;45.508;12.252;2022-09-02T03:09:34;101481.28;;;24.28;55.40
38786;BME280;24535;45.508;12.252;2022-09-02T03:12:00;101477.75;;;24.28;55.11
38786;BME280;24535;45.508;12.252;2022-09-02T03:14:25;101476.09;;;24.27;54.98
38786;BME280;24535;45.508;12.252;2022-09-02T03:17:09;101463.59;;;24.26;54.94
38786;BME280;24535;45.508;12.252;2022-09-02T03:22:58;101463.06;;;24.38;55.09
38786;BME280;24535;45.508;12.252;2022-09-02T03:31:47;101454.50;;;24.43;54.53
38786;BME280;24535;45.508;12.252;2022-09-02T03:34:18;101453.16;;;24.39;54.45
38786;BME280;24535;45.508;12.252;2022-09-02T03:36:44;101453.00;;;24.32;54.63
38786;BME280;24535;45.508;12.252;2022-09-02T03:39:10;101455.69;;;24.32;54.62
38786;BME280;24535;45.508;12.252;2022-09-02T03:41:36;101458.72;;;24.29;54.47
38786;BME280;24535;45.508;12.252;2022-09-02T03:44:05;101469.50;;;24.29;54.44
38786;BME280;24535;45.508;12.252;2022-09-02T03:46:31;101461.09;;;24.24;54.45
38786;BME280;24535;45.508;12.252;2022-09-02T03:48:56;101461.63;;;24.20;54.58
38786;BME280;24535;45.508;12.252;2022-09-02T03:51:23;101462.81;;;24.17;54.60
38786;BME280;24535;45.508;12.252;2022-09-02T03:53:49;101459.94;;;24.10;54.60
38786;BME280;24535;45.508;12.252;2022-09-02T03:56:15;101463.66;;;24.09;54.57
38786;BME280;24535;45.508;12.252;2022-09-02T03:59:03;101456.13;;;24.05;54.91
38786;BME280;24535;45.508;12.252;2022-09-02T04:01:29;101456.63;;;24.00;54.42
38786;BME280;24535;45.508;12.252;2022-09-02T04:03:57;101453.44;;;23.97;54.58
38786;BME280;24535;45.508;12.252;2022-09-02T04:06:23;101460.19;;;23.92;54.87
38786;BME280;24535;45.508;12.252;2022-09-02T04:08:49;101455.31;;;23.88;55.00
38786;BME280;24535;45.508;12.252;2022-09-02T04:16:28;101482.41;;;23.95;55.10
38786;BME280;24535;45.508;12.252;2022-09-02T04:18:55;101473.31;;;23.96;55.04
38786;BME280;24535;45.508;12.252;2022-09-02T04:21:35;101480.69;;;24.02;54.83
38786;BME280;24535;45.508;12.252;2022-09-02T04:24:01;101481.88;;;24.07;54.21
38786;BME280;24535;45.508;12.252;2022-09-02T04:26:27;101484.38;;;24.09;54.07
38786;BME280;24535;45.508;12.252;2022-09-02T04:31:34;101472.28;;;23.97;53.67
38786;BME280;24535;45.508;12.252;2022-09-02T04:34:00;101482.41;;;23.95;53.89
38786;BME280;24535;45.508;12.252;2022-09-02T04:36:25;101481.41;;;23.87;53.74
38786;BME280;24535;45.508;12.252;2022-09-02T04:41:47;101485.25;;;23.85;53.65
38786;BME280;24535;45.508;12.252;2022-09-02T04:44:12;101493.19;;;23.86;53.68
38786;BME280;24535;45.508;12.252;2022-09-02T04:46:38;101488.13;;;23.83;53.58
38786;BME280;24535;45.508;12.252;2022-09-02T04:49:13;101493.84;;;23.80;53.72
38786;BME280;24535;45.508;12.252;2022-09-02T04:51:42;101484.78;;;23.73;53.69
38786;BME280;24535;45.508;12.252;2022-09-02T04:54:08;101490.66;;;23.77;53.56
38786;BME280;24535;45.508;12.252;2022-09-02T04:56:33;101494.88;;;23.79;53.31
38786;BME280;24535;45.508;12.252;2022-09-02T04:59:02;101494.19;;;23.77;53.61
38786;BME280;24535;45.508;12.252;2022-09-02T05:04:31;101494.88;;;23.87;53.48
38786;BME280;24535;45.508;12.252;2022-09-02T05:07:03;101494.16;;;23.93;53.68
38786;BME280;24535;45.508;12.252;2022-09-02T05:12:37;101503.91;;;24.11;53.07
38786;BME280;24535;45.508;12.252;2022-09-02T05:15:05;101490.06;;;24.14;52.75
38786;BME280;24535;45.508;12.252;2022-09-02T05:17:31;101485.38;;;24.16;52.33
38786;BME280;24535;45.508;12.252;2022-09-02T05:19:57;101485.53;;;24.14;52.72
38786;BME280;24535;45.508;12.252;2022-09-02T05:22:23;101490.91;;;24.14;52.29
38786;BME280;24535;45.508;12.252;2022-09-02T05:27:36;101488.91;;;24.08;52.79
38786;BME280;24535;45.508;12.252;2022-09-02T05:30:08;101489.59;;;24.02;52.47
38786;BME280;24535;45.508;12.252;2022-09-02T05:32:34;101492.13;;;24.04;52.40
38786;BME280;24535;45.508;12.252;2022-09-02T05:35:16;101498.03;;;24.07;52.67
38786;BME280;24535;45.508;12.252;2022-09-02T05:38:01;101503.75;;;24.04;52.53
38786;BME280;24535;45.508;12.252;2022-09-02T05:40:29;101510.78;;;24.05;52.54
38786;BME280;24535;45.508;12.252;2022-09-02T05:43:04;101510.13;;;24.11;52.23
38786;BME280;24535;45.508;12.252;2022-09-02T05:45:54;101502.34;;;24.16;52.49
38786;BME280;24535;45.508;12.252;2022-09-02T05:50:52;101505.84;;;24.25;52.28
38786;BME280;24535;45.508;12.252;2022-09-02T05:53:18;101510.91;;;24.28;52.39
38786;BME280;24535;45.508;12.252;2022-09-02T05:56:11;101502.97;;;24.35;51.73
38786;BME280;24535;45.508;12.252;2022-09-02T05:58:37;101494.03;;;24.34;51.91
38786;BME280;24535;45.508;12.252;2022-09-02T06:01:10;101511.72;;;24.45;51.57
38786;BME280;24535;45.508;12.252;2022-09-02T06:03:45;101513.72;;;24.51;51.22
38786;BME280;24535;45.508;12.252;2022-09-02T06:06:12;101504.97;;;24.49;51.44
38786;BME280;24535;45.508;12.252;2022-09-02T06:08:53;101493.88;;;24.44;50.67
38786;BME280;24535;45.508;12.252;2022-09-02T06:11:50;101494.72;;;24.45;50.72
38786;BME280;24535;45.508;12.252;2022-09-02T06:14:42;101502.59;;;24.46;50.67
38786;BME280;24535;45.508;12.252;2022-09-02T06:17:08;101498.25;;;24.45;51.01
38786;BME280;24535;45.508;12.252;2022-09-02T06:19:52;101495.38;;;24.47;50.90
38786;BME280;24535;45.508;12.252;2022-09-02T06:25:20;101497.19;;;24.54;50.76
38786;BME280;24535;45.508;12.252;2022-09-02T06:27:46;101500.69;;;24.63;50.44
38786;BME280;24535;45.508;12.252;2022-09-02T06:30:29;101495.63;;;24.68;49.87
38786;BME280;24535;45.508;12.252;2022-09-02T06:33:07;101490.53;;;24.73;50.38
38786;BME280;24535;45.508;12.252;2022-09-02T06:35:37;101500.78;;;24.78;50.43
38786;BME280;24535;45.508;12.252;2022-09-02T06:38:03;101495.53;;;24.84;49.72
38786;BME280;24535;45.508;12.252;2022-09-02T06:40:29;101496.31;;;24.93;49.72
38786;BME280;24535;45.508;12.252;2022-09-02T06:42:55;101510.88;;;25.07;49.50
38786;BME280;24535;45.508;12.252;2022-09-02T06:48:42;101508.00;;;25.17;49.28
38786;BME280;24535;45.508;12.252;2022-09-02T06:54:22;101503.59;;;25.38;48.47
38786;BME280;24535;45.508;12.252;2022-09-02T06:56:48;101502.56;;;25.39;48.38
38786;BME280;24535;45.508;12.252;2022-09-02T06:59:21;101497.16;;;25.39;47.82
38786;BME280;24535;45.508;12.252;2022-09-02T07:01:54;101504.91;;;25.43;46.85
38786;BME280;24535;45.508;12.252;2022-09-02T07:04:24;101504.72;;;25.44;46.90
38786;BME280;24535;45.508;12.252;2022-09-02T07:07:09;101508.91;;;25.47;46.25
38786;BME280;24535;45.508;12.252;2022-09-02T07:09:38;101511.38;;;25.56;46.20
38786;BME280;24535;45.508;12.252;2022-09-02T07:12:04;101498.34;;;25.60;46.62
38786;BME280;24535;45.508;12.252;2022-09-02T07:14:34;101504.97;;;25.72;46.61
38786;BME280;24535;45.508;12.252;2022-09-02T07:17:11;101508.56;;;25.87;45.33
38786;BME280;24535;45.508;12.252;2022-09-02T07:19:45;101510.63;;;26.00;44.56
38786;BME280;24535;45.508;12.252;2022-09-02T07:22:10;101520.97;;;26.11;44.08
38786;BME280;24535;45.508;12.252;2022-09-02T07:24:36;101519.41;;;26.17;44.25
38786;BME280;24535;45.508;12.252;2022-09-02T07:27:02;101522.13;;;26.17;42.78
38786;BME280;24535;45.508;12.252;2022-09-02T07:29:28;101522.84;;;26.11;42.49
38786;BME280;24535;45.508;12.252;2022-09-02T07:31:54;101512.59;;;26.06;41.77
38786;BME280;24535;45.508;12.252;2022-09-02T07:34:20;101512.59;;;26.06;41.39
38786;BME280;24535;45.508;12.252;2022-09-02T07:37:28;101518.66;;;26.08;41.66
38786;BME280;24535;45.508;12.252;2022-09-02T07:39:48;101527.22;;;26.12;41.35
38786;BME280;24535;45.508;12.252;2022-09-02T07:43:00;101520.34;;;26.09;41.30
38786;BME280;24535;45.508;12.252;2022-09-02T07:45:13;101510.38;;;26.10;40.92
38786;BME280;24535;45.508;12.252;2022-09-02T07:47:39;101520.81;;;26.13;40.83
38786;BME280;24535;45.508;12.252;2022-09-02T07:50:09;101512.50;;;26.14;40.89
38786;BME280;24535;45.508;12.252;2022-09-02T07:52:35;101513.34;;;26.15;40.65
38786;BME280;24535;45.508;12.252;2022-09-02T07:55:04;101514.03;;;26.17;40.64
38786;BME280;24535;45.508;12.252;2022-09-02T07:57:51;101514.47;;;26.21;40.77
38786;BME280;24535;45.508;12.252;2022-09-02T08:00:19;101512.78;;;26.20;40.53
38786;BME280;24535;45.508;12.252;2022-09-02T08:02:53;101509.72;;;26.23;40.27
38786;BME280;24535;45.508;12.252;2022-09-02T08:05:19;101503.28;;;26.24;40.35
38786;BME280;24535;45.508;12.252;2022-09-02T08:10:56;101502.16;;;26.33;40.01
38786;BME280;24535;45.508;12.252;2022-09-02T08:16:32;101504.88;;;26.48;39.73
38786;BME280;24535;45.508;12.252;2022-09-02T08:18:57;101508.50;;;26.55;40.09
38786;BME280;24535;45.508;12.252;2022-09-02T08:21:23;101508.03;;;26.66;39.16
38786;BME280;24535;45.508;12.252;2022-09-02T08:23:59;101509.38;;;26.77;38.56
38786;BME280;24535;45.508;12.252;2022-09-02T08:26:24;101507.16;;;26.80;39.32
38786;BME280;24535;45.508;12.252;2022-09-02T08:28:52;101511.41;;;26.90;38.62
38786;BME280;24535;45.508;12.252;2022-09-02T08:31:26;101502.47;;;26.89;38.29
38786;BME280;24535;45.508;12.252;2022-09-02T08:34:22;101509.88;;;27.02;37.76
38786;BME280;24535;45.508;12.252;2022-09-02T08:37:17;101509.13;;;27.08;37.52
38786;BME280;24535;45.508;12.252;2022-09-02T08:39:46;101505.47;;;27.16;38.63
38786;BME280;24535;45.508;12.252;2022-09-02T08:42:35;101507.84;;;27.25;37.16
38786;BME280;24535;45.508;12.252;2022-09-02T08:45:07;101503.41;;;27.39;38.84
38786;BME280;24535;45.508;12.252;2022-09-02T08:47:38;101498.03;;;27.67;37.86
38786;BME280;24535;45.508;12.252;2022-09-02T08:50:17;101493.50;;;28.02;36.56
38786;BME280;24535;45.508;12.252;2022-09-02T08:53:07;101490.81;;;28.44;36.91
38786;BME280;24535;45.508;12.252;2022-09-02T08:55:51;101506.25;;;28.98;36.02
38786;BME280;24535;45.508;12.252;2022-09-02T08:58:26;101504.44;;;29.45;35.96
38786;BME280;24535;45.508;12.252;2022-09-02T09:04:00;101507.97;;;30.18;33.59
38786;BME280;24535;45.508;12.252;2022-09-02T09:21:16;101480.81;;;30.63;33.27
38786;BME280;24535;45.508;12.252;2022-09-02T09:23:44;101471.13;;;30.74;33.25
38786;BME280;24535;45.508;12.252;2022-09-02T09:26:32;101477.78;;;30.85;31.71
38786;BME280;24535;45.508;12.252;2022-09-02T09:29:19;101480.00;;;30.94;31.82
38786;BME280;24535;45.508;12.252;2022-09-02T09:31:52;101472.63;;;31.01;31.64
38786;BME280;24535;45.508;12.252;2022-09-02T09:34:19;101462.16;;;31.05;31.97
38786;BME280;24535;45.508;12.252;2022-09-02T09:36:50;101467.31;;;31.13;31.07
38786;BME280;24535;45.508;12.252;2022-09-02T09:39:44;101462.47;;;31.15;30.81
38786;BME280;24535;45.508;12.252;2022-09-02T09:45:35;101459.75;;;31.15;30.91
38786;BME280;24535;45.508;12.252;2022-09-02T09:50:35;101458.75;;;31.10;30.54
38786;BME280;24535;45.508;12.252;2022-09-02T09:53:32;101456.25;;;31.08;31.57
38786;BME280;24535;45.508;12.252;2022-09-02T10:02:26;101453.06;;;30.86;31.11
38786;BME280;24535;45.508;12.252;2022-09-02T10:04:54;101451.88;;;30.75;30.84
38786;BME280;24535;45.508;12.252;2022-09-02T10:10:18;101456.53;;;30.62;32.45
38786;BME280;24535;45.508;12.252;2022-09-02T10:12:46;101457.00;;;30.52;31.62
38786;BME280;24535;45.508;12.252;2022-09-02T10:15:12;101462.06;;;30.42;31.37
38786;BME280;24535;45.508;12.252;2022-09-02T10:26:29;101445.63;;;30.23;30.47
38786;BME280;24535;45.508;12.252;2022-09-02T10:29:40;101442.06;;;30.23;30.19
38786;BME280;24535;45.508;12.252;2022-09-02T10:34:53;101435.81;;;30.16;30.94
38786;BME280;24535;45.508;12.252;2022-09-02T10:50:12;101422.91;;;29.91;33.00
38786;BME280;24535;45.508;12.252;2022-09-02T10:55:52;101416.88;;;29.83;32.40
38786;BME280;24535;45.508;12.252;2022-09-02T10:58:40;101414.81;;;29.78;31.96
38786;BME280;24535;45.508;12.252;2022-09-02T11:01:24;101414.59;;;29.79;31.46
38786;BME280;24535;45.508;12.252;2022-09-02T11:04:34;101419.38;;;29.84;32.48
38786;BME280;24535;45.508;12.252;2022-09-02T11:10:10;101409.56;;;29.76;31.27
38786;BME280;24535;45.508;12.252;2022-09-02T11:12:47;101409.56;;;29.76;31.24
38786;BME280;24535;45.508;12.252;2022-09-02T11:15:22;101420.25;;;29.78;31.06
38786;BME280;24535;45.508;12.252;2022-09-02T11:18:21;101414.41;;;29.74;30.73
38786;BME280;24535;45.508;12.252;2022-09-02T11:24:09;101409.16;;;29.73;32.01
38786;BME280;24535;45.508;12.252;2022-09-02T11:27:20;101407.50;;;29.72;33.43
38786;BME280;24535;45.508;12.252;2022-09-02T11:30:07;101408.56;;;29.71;33.57
38786;BME280;24535;45.508;12.252;2022-09-02T11:33:19;101403.75;;;29.66;33.67
38786;BME280;24535;45.508;12.252;2022-09-02T11:36:05;101410.66;;;29.62;33.06
38786;BME280;24535;45.508;12.252;2022-09-02T11:38:35;101405.44;;;29.61;34.20
38786;BME280;24535;45.508;12.252;2022-09-02T11:44:31;101402.94;;;29.59;34.47
38786;BME280;24535;45.508;12.252;2022-09-02T11:53:15;101398.75;;;29.63;33.28
38786;BME280;24535;45.508;12.252;2022-09-02T11:56:07;101388.31;;;29.60;32.43
38786;BME280;24535;45.508;12.252;2022-09-02T11:58:41;101389.13;;;29.61;33.31
38786;BME280;24535;45.508;12.252;2022-09-02T12:01:25;101384.97;;;29.58;32.44
38786;BME280;24535;45.508;12.252;2022-09-02T12:03:57;101378.88;;;29.56;32.97
38786;BME280;24535;45.508;12.252;2022-09-02T12:06:23;101374.50;;;29.55;33.65
38786;BME280;24535;45.508;12.252;2022-09-02T12:17:06;101374.91;;;29.52;34.58
38786;BME280;24535;45.508;12.252;2022-09-02T12:19:41;101374.31;;;29.50;33.69
38786;BME280;24535;45.508;12.252;2022-09-02T12:28:23;101365.13;;;29.51;34.91
38786;BME280;24535;45.508;12.252;2022-09-02T12:58:11;101327.50;;;29.48;35.74
38786;BME280;24535;45.508;12.252;2022-09-02T13:10:26;101320.59;;;29.52;35.46
38786;BME280;24535;45.508;12.252;2022-09-02T13:16:31;101302.25;;;29.47;35.91
38786;BME280;24535;45.508;12.252;2022-09-02T13:33:28;101294.31;;;29.46;34.58
38786;BME280;24535;45.508;12.252;2022-09-02T13:35:55;101289.50;;;29.48;34.91
38786;BME280;24535;45.508;12.252;2022-09-02T13:38:24;101278.88;;;29.46;35.95
38786;BME280;24535;45.508;12.252;2022-09-02T13:40:50;101285.13;;;29.47;35.15
38786;BME280;24535;45.508;12.252;2022-09-02T13:43:25;101288.03;;;29.52;35.34
38786;BME280;24535;45.508;12.252;2022-09-02T13:45:53;101294.28;;;29.52;35.39
38786;BME280;24535;45.508;12.252;2022-09-02T13:48:25;101293.03;;;29.55;35.22
38786;BME280;24535;45.508;12.252;2022-09-02T13:50:53;101287.59;;;29.55;34.62
38786;BME280;24535;45.508;12.252;2022-09-02T13:53:34;101290.94;;;29.57;35.13
38786;BME280;24535;45.508;12.252;2022-09-02T13:56:02;101297.84;;;29.60;35.41
38786;BME280;24535;45.508;12.252;2022-09-02T13:58:41;101299.50;;;29.61;36.12
38786;BME280;24535;45.508;12.252;2022-09-02T14:01:23;101298.91;;;29.59;35.99
38786;BME280;24535;45.508;12.252;2022-09-02T14:03:53;101295.34;;;29.58;36.05
38786;BME280;24535;45.508;12.252;2022-09-02T14:06:28;101298.91;;;29.59;36.44
38786;BME280;24535;45.508;12.252;2022-09-02T14:09:00;101302.03;;;29.62;35.86
38786;BME280;24535;45.508;12.252;2022-09-02T14:11:27;101290.75;;;29.59;36.53
38786;BME280;24535;45.508;12.252;2022-09-02T14:13:55;101290.94;;;29.57;36.30
38786;BME280;24535;45.508;12.252;2022-09-02T14:16:28;101291.16;;;29.55;36.15
38786;BME280;24535;45.508;12.252;2022-09-02T14:22:25;101290.94;;;29.57;36.12
38786;BME280;24535;45.508;12.252;2022-09-02T14:24:51;101289.47;;;29.54;36.03
38786;BME280;24535;45.508;12.252;2022-09-02T14:30:31;101291.97;;;29.56;36.31
38786;BME280;24535;45.508;12.252;2022-09-02T14:35:41;101283.41;;;29.52;36.18
38786;BME280;24535;45.508;12.252;2022-09-02T14:38:30;101276.97;;;29.53;35.79
38786;BME280;24535;45.508;12.252;2022-09-02T14:41:08;101264.63;;;29.51;35.78
38786;BME280;24535;45.508;12.252;2022-09-02T14:43:47;101275.69;;;29.56;35.63
38786;BME280;24535;45.508;12.252;2022-09-02T14:49:10;101282.59;;;29.59;35.33
38786;BME280;24535;45.508;12.252;2022-09-02T14:52:02;101273.63;;;29.58;35.52
38786;BME280;24535;45.508;12.252;2022-09-02T14:57:04;101271.75;;;29.59;35.21
38786;BME280;24535;45.508;12.252;2022-09-02T14:59:30;101264.41;;;29.52;35.38
38786;BME280;24535;45.508;12.252;2022-09-02T15:01:57;101261.09;;;29.50;35.43
38786;BME280;24535;45.508;12.252;2022-09-02T15:06:49;101255.25;;;29.53;35.35
38786;BME280;24535;45.508;12.252;2022-09-02T15:09:16;101256.50;;;29.51;35.81
38786;BME280;24535;45.508;12.252;2022-09-02T15:15:04;101250.06;;;29.39;35.51
38786;BME280;24535;45.508;12.252;2022-09-02T15:17:30;101251.97;;;29.31;35.79
38786;BME280;24535;45.508;12.252;2022-09-02T15:19:55;101254.06;;;29.29;35.62
38786;BME280;24535;45.508;12.252;2022-09-02T15:25:05;101254.50;;;29.26;35.24
38786;BME280;24535;45.508;12.252;2022-09-02T15:34:15;101258.03;;;29.34;36.04
38786;BME280;24535;45.508;12.252;2022-09-02T15:36:41;101250.06;;;29.32;36.49
38786;BME280;24535;45.508;12.252;2022-09-02T15:39:06;101249.88;;;29.34;36.46
38786;BME280;24535;45.508;12.252;2022-09-02T15:41:47;101245.50;;;29.26;35.52
38786;BME280;24535;45.508;12.252;2022-09-02T15:44:32;101258.63;;;29.29;35.56
38786;BME280;24535;45.508;12.252;2022-09-02T15:46:57;101255.53;;;29.25;36.33
38786;BME280;24535;45.508;12.252;2022-09-02T15:52:20;101261.16;;;29.30;36.60
38786;BME280;24535;45.508;12.252;2022-09-02T15:54:46;101258.84;;;29.34;36.56
38786;BME280;24535;45.508;12.252;2022-09-02T16:00:19;101260.94;;;29.32;36.11
38786;BME280;24535;45.508;12.252;2022-09-02T16:06:07;101270.13;;;29.31;36.60
38786;BME280;24535;45.508;12.252;2022-09-02T16:08:46;101264.94;;;29.29;35.80
38786;BME280;24535;45.508;12.252;2022-09-02T16:11:12;101275.16;;;29.27;35.85
38786;BME280;24535;45.508;12.252;2022-09-02T16:13:37;101273.69;;;29.25;36.15
38786;BME280;24535;45.508;12.252;2022-09-02T16:16:05;101260.75;;;29.20;36.47
38786;BME280;24535;45.508;12.252;2022-09-02T16:18:32;101267.66;;;29.23;36.52
38786;BME280;24535;45.508;12.252;2022-09-02T16:20:58;101268.69;;;29.22;36.11
38786;BME280;24535;45.508;12.252;2022-09-02T16:23:24;101277.25;;;29.25;36.63
38786;BME280;24535;45.508;12.252;2022-09-02T16:28:41;101284.53;;;29.25;36.41
38786;BME280;24535;45.508;12.252;2022-09-02T16:31:08;101277.25;;;29.25;36.63
38786;BME280;24535;45.508;12.252;2022-09-02T16:42:42;101271.41;;;29.15;35.68
38786;BME280;24535;45.508;12.252;2022-09-02T16:45:08;101268.50;;;29.10;36.24
38786;BME280;24535;45.508;12.252;2022-09-02T16:47:33;101279.38;;;29.10;36.64
38786;BME280;24535;45.508;12.252;2022-09-02T16:49:59;101279.38;;;29.10;36.25
38786;BME280;24535;45.508;12.252;2022-09-02T16:52:28;101291.28;;;29.09;36.95
38786;BME280;24535;45.508;12.252;2022-09-02T16:57:21;101291.47;;;29.07;37.01
38786;BME280;24535;45.508;12.252;2022-09-02T17:00:15;101284.81;;;29.03;37.16
38786;BME280;24535;45.508;12.252;2022-09-02T17:02:40;101281.06;;;28.98;37.06
38786;BME280;24535;45.508;12.252;2022-09-02T17:13:40;101300.22;;;28.83;37.00
38786;BME280;24535;45.508;12.252;2022-09-02T17:16:19;101304.81;;;28.82;37.47
38786;BME280;24535;45.508;12.252;2022-09-02T17:18:54;101296.50;;;28.77;37.72
38786;BME280;24535;45.508;12.252;2022-09-02T17:21:55;101296.06;;;28.74;37.98
38786;BME280;24535;45.508;12.252;2022-09-02T17:24:23;101299.63;;;28.74;38.07
38786;BME280;24535;45.508;12.252;2022-09-02T17:26:51;101302.75;;;28.71;38.09
38786;BME280;24535;45.508;12.252;2022-09-02T17:29:20;101296.25;;;28.72;38.53
38786;BME280;24535;45.508;12.252;2022-09-02T17:31:56;101283.13;;;28.69;38.91
38786;BME280;24535;45.508;12.252;2022-09-02T17:34:21;101286.88;;;28.68;38.72
38786;BME280;24535;45.508;12.252;2022-09-02T17:36:47;101292.28;;;28.68;38.99
38786;BME280;24535;45.508;12.252;2022-09-02T17:39:17;101308.38;;;28.70;38.66